sensor_id;sensor_type;location;lat;lon;timestamp;pressure;altitude;pressure_sealevel;temperature;humidity
45113;BME280;30873;53.908;27.576;2022-08-06T00:03:54;1017.6;;;25.5;61.3
45113;BME280;30873;53.908;27.576;2022-08-06T00:08:54;1017.6;;;25.5;61.5
45113;BME280;30873;53.908;27.576;2022-08-06T00:13:54;1017.6;;;25.4;61.6
45113;BME280;30873;53.908;27.576;2022-08-06T00:18:54;1017.6;;;25.4;61.8
45113;BME280;30873;53.908;27.576;2022-08-06T00:23:54;1017.6;;;25.3;62
45113;BME280;30873;53.908;27.576;2022-08-06T00:28:54;1017.6;;;25.3;62.2
45113;BME280;30873;53.908;27.576;2022-08-06T00:33:54;1017.6;;;25.2;62.4
45113;BME280;30873;53.908;27.576;2022-08-06T00:38:55;1017.7;;;25.1;62.6
45113;BME280;30873;53.908;27.576;2022-08-06T00:43:54;1017.7;;;25.1;62.8
45113;BME280;30873;53.908;27.576;2022-08-06T00:48:54;1017.7;;;25;63
45113;BME280;30873;53.908;27.576;2022-08-06T00:53:54;1017.7;;;25;63.1
45113;BME280;30873;53.908;27.576;2022-08-06T00:58:54;1017.7;;;24.9;63.4
45113;BME280;30873;53.908;27.576;2022-08-06T01:03:54;1017.7;;;24.9;63.6
45113;BME280;30873;53.908;27.576;2022-08-06T01:08:54;1017.7;;;24.8;63.8
45113;BME280;30873;53.908;27.576;2022-08-06T01:13:54;1017.7;;;24.8;63.9
45113;BME280;30873;53.908;27.576;2022-08-06T01:18:56;1017.7;;;24.8;64
45113;BME280;30873;53.908;27.576;2022-08-06T01:28:56;1017.7;;;24.7;64.3
45113;BME280;30873;53.908;27.576;2022-08-06T01:33:57;1017.8;;;24.7;64.5
45113;BME280;30873;53.908;27.576;2022-08-06T01:38:55;1017.8;;;24.6;64.7
45113;BME280;30873;53.908;27.576;2022-08-06T01:43:54;1017.8;;;24.6;64.8
45113;BME280;30873;53.908;27.576;2022-08-06T01:48:55;1017.8;;;24.5;65
45113;BME280;30873;53.908;27.576;2022-08-06T01:53:54;1017.9;;;24.5;65.2
45113;BME280;30873;53.908;27.576;2022-08-06T01:58:54;1017.9;;;24.4;65.4
45113;BME280;30873;53.908;27.576;2022-08-06T02:03:55;1017.9;;;24.3;65.7
45113;BME280;30873;53.908;27.576;2022-08-06T02:08:54;1017.9;;;24.3;65.8
45113;BME280;30873;53.908;27.576;2022-08-06T02:13:54;1017.9;;;24.3;66
45113;BME280;30873;53.908;27.576;2022-08-06T02:18:54;1018;;;24.2;66.1
45113;BME280;30873;53.908;27.576;2022-08-06T02:23:54;1018;;;24.2;66.2
45113;BME280;30873;53.908;27.576;2022-08-06T02:28:55;1018;;;24.1;66.4
45113;BME280;30873;53.908;27.576;2022-08-06T02:33:54;1017.9;;;24.1;66.5
45113;BME280;30873;53.908;27.576;2022-08-06T02:38:58;1017.9;;;24.1;66.6
45113;BME280;30873;53.908;27.576;2022-08-06T02:43:56;1017.9;;;24.1;66.8
45113;BME280;30873;53.908;27.576;2022-08-06T02:49:03;1017.8;;;24.1;66.8
45113;BME280;30873;53.908;27.576;2022-08-06T02:53:56;1017.9;;;24.1;66.9
45113;BME280;30873;53.908;27.576;2022-08-06T02:58:55;1017.9;;;24;67
45113;BME280;30873;53.908;27.576;2022-08-06T03:03:55;1017.9;;;24;67.1
45113;BME280;30873;53.908;27.576;2022-08-06T03:08:54;1017.8;;;24;67.2
45113;BME280;30873;53.908;27.576;2022-08-06T03:13:54;1017.8;;;24;67.3
45113;BME280;30873;53.908;27.576;2022-08-06T03:18:54;1017.8;;;24;67.4
45113;BME280;30873;53.908;27.576;2022-08-06T03:23:54;1017.8;;;24;67.4
45113;BME280;30873;53.908;27.576;2022-08-06T03:28:55;1017.8;;;24.1;67.4
45113;BME280;30873;53.908;27.576;2022-08-06T03:33:54;1017.8;;;24.1;67.4
45113;BME280;30873;53.908;27.576;2022-08-06T03:39:06;1017.8;;;24.2;67.3
45113;BME280;30873;53.908;27.576;2022-08-06T03:43:54;1017.8;;;24.3;67
45113;BME280;30873;53.908;27.576;2022-08-06T03:48:55;1017.9;;;24.3;66.9
45113;BME280;30873;53.908;27.576;2022-08-06T03:53:54;1017.9;;;24.4;66.6
45113;BME280;30873;53.908;27.576;2022-08-06T03:58:54;1017.9;;;24.5;66.5
45113;BME280;30873;53.908;27.576;2022-08-06T04:03:54;1018;;;24.5;66.4
45113;BME280;30873;53.908;27.576;2022-08-06T04:08:54;1018;;;24.6;66.3
45113;BME280;30873;53.908;27.576;2022-08-06T04:13:54;1018.1;;;24.8;65.9
45113;BME280;30873;53.908;27.576;2022-08-06T04:18:54;1018.1;;;24.9;65.6
45113;BME280;30873;53.908;27.576;2022-08-06T04:23:54;1018.1;;;25.1;64.9
45113;BME280;30873;53.908;27.576;2022-08-06T04:28:55;1018.2;;;25.4;64.1
45113;BME280;30873;53.908;27.576;2022-08-06T04:33:54;1018.3;;;25.6;63.3
45113;BME280;30873;53.908;27.576;2022-08-06T04:38:54;1018.3;;;25.8;62.7
45113;BME280;30873;53.908;27.576;2022-08-06T04:43:54;1018.3;;;26.2;61.8
45113;BME280;30873;53.908;27.576;2022-08-06T04:48:54;1018.3;;;26.2;61.3
45113;BME280;30873;53.908;27.576;2022-08-06T04:53:54;1018.2;;;26.1;61.6
45113;BME280;30873;53.908;27.576;2022-08-06T04:58:54;1018.2;;;25.9;62.3
45113;BME280;30873;53.908;27.576;2022-08-06T05:03:54;1018.3;;;25.7;62.8
45113;BME280;30873;53.908;27.576;2022-08-06T05:08:55;1018.3;;;25.4;63.8
45113;BME280;30873;53.908;27.576;2022-08-06T05:13:57;1018.3;;;25.5;63.9
45113;BME280;30873;53.908;27.576;2022-08-06T05:18:57;1018.2;;;25.8;63.3
45113;BME280;30873;53.908;27.576;2022-08-06T05:23:54;1018.2;;;26.2;62.2
45113;BME280;30873;53.908;27.576;2022-08-06T05:28:54;1018.2;;;26.3;61.7
45113;BME280;30873;53.908;27.576;2022-08-06T05:33:54;1018.2;;;26.5;61.1
45113;BME280;30873;53.908;27.576;2022-08-06T05:38:54;1018.2;;;26.6;60.7
45113;BME280;30873;53.908;27.576;2022-08-06T05:43:54;1018.2;;;26.8;60.4
45113;BME280;30873;53.908;27.576;2022-08-06T05:49:03;1018.2;;;27;59.8
45113;BME280;30873;53.908;27.576;2022-08-06T05:53:59;1018.2;;;27;59.6
45113;BME280;30873;53.908;27.576;2022-08-06T05:58:56;1018.1;;;27.1;59.6
45113;BME280;30873;53.908;27.576;2022-08-06T06:03:54;1018.1;;;27.2;59.2
45113;BME280;30873;53.908;27.576;2022-08-06T06:08:54;1018.1;;;27.4;58.8
45113;BME280;30873;53.908;27.576;2022-08-06T06:13:54;1018.1;;;27.5;58.7
45113;BME280;30873;53.908;27.576;2022-08-06T06:19:09;1018.1;;;27.7;58.2
45113;BME280;30873;53.908;27.576;2022-08-06T06:24:00;1018.1;;;27.6;58.3
45113;BME280;30873;53.908;27.576;2022-08-06T06:28:58;1018;;;27.7;58.2
45113;BME280;30873;53.908;27.576;2022-08-06T06:34:31;1017.9;;;28;57.6
45113;BME280;30873;53.908;27.576;2022-08-06T06:38:58;1017.9;;;28.2;57
45113;BME280;30873;53.908;27.576;2022-08-06T06:44:30;1017.9;;;28.5;56.6
45113;BME280;30873;53.908;27.576;2022-08-06T06:48:58;1017.9;;;28.7;56
45113;BME280;30873;53.908;27.576;2022-08-06T06:53:54;1017.9;;;28.8;55.6
45113;BME280;30873;53.908;27.576;2022-08-06T06:58:58;1017.9;;;28.9;55.5
45113;BME280;30873;53.908;27.576;2022-08-06T07:03:54;1017.9;;;29.4;54.6
45113;BME280;30873;53.908;27.576;2022-08-06T07:08:54;1017.9;;;29.5;54.1
45113;BME280;30873;53.908;27.576;2022-08-06T07:13:55;1017.8;;;29.5;54
45113;BME280;30873;53.908;27.576;2022-08-06T07:18:54;1017.8;;;29.6;53.8
45113;BME280;30873;53.908;27.576;2022-08-06T07:23:54;1017.8;;;29.8;53.2
45113;BME280;30873;53.908;27.576;2022-08-06T07:28:54;1017.8;;;29.8;53.3
45113;BME280;30873;53.908;27.576;2022-08-06T07:33:54;1017.8;;;30.2;52.6
45113;BME280;30873;53.908;27.576;2022-08-06T07:38:56;1017.7;;;30.3;52
45113;BME280;30873;53.908;27.576;2022-08-06T07:43:57;1017.7;;;30.5;51.7
45113;BME280;30873;53.908;27.576;2022-08-06T07:48:56;1017.7;;;30.6;51.4
45113;BME280;30873;53.908;27.576;2022-08-06T07:53:54;1017.7;;;30.9;50.7
45113;BME280;30873;53.908;27.576;2022-08-06T07:58:54;1017.7;;;31.2;50
45113;BME280;30873;53.908;27.576;2022-08-06T08:03:54;1017.7;;;31.4;49.4
45113;BME280;30873;53.908;27.576;2022-08-06T08:08:56;1017.7;;;31.4;49.1
45113;BME280;30873;53.908;27.576;2022-08-06T08:13:54;1017.7;;;31.2;49.5
45113;BME280;30873;53.908;27.576;2022-08-06T08:18:54;1017.7;;;31.3;48.6
45113;BME280;30873;53.908;27.576;2022-08-06T08:23:54;1017.7;;;31.3;48.7
45113;BME280;30873;53.908;27.576;2022-08-06T08:28:54;1017.7;;;31.6;47.9
45113;BME280;30873;53.908;27.576;2022-08-06T08:33:54;1017.5;;;32.2;46.9
45113;BME280;30873;53.908;27.576;2022-08-06T08:38:54;1017.5;;;32.8;45.6
45113;BME280;30873;53.908;27.576;2022-08-06T08:43:56;1017.5;;;33.5;44.4
45113;BME280;30873;53.908;27.576;2022-08-06T08:48:55;1017.5;;;32.9;45.1
45113;BME280;30873;53.908;27.576;2022-08-06T08:53:55;1017.5;;;32.1;46.8
45113;BME280;30873;53.908;27.576;2022-08-06T08:58:54;1017.5;;;31.7;47.3
45113;BME280;30873;53.908;27.576;2022-08-06T09:03:54;1017.4;;;31.7;47.6
45113;BME280;30873;53.908;27.576;2022-08-06T09:08:55;1017.4;;;31.9;47.3
45113;BME280;30873;53.908;27.576;2022-08-06T09:13:54;1017.4;;;32.9;45.5
45113;BME280;30873;53.908;27.576;2022-08-06T09:18:54;1017.3;;;33.3;44.2
45113;BME280;30873;53.908;27.576;2022-08-06T09:23:55;1017.3;;;33.3;44
45113;BME280;30873;53.908;27.576;2022-08-06T09:28:54;1017.3;;;32.9;45.3
45113;BME280;30873;53.908;27.576;2022-08-06T09:33:59;1017.4;;;32.8;45.3
45113;BME280;30873;53.908;27.576;2022-08-06T09:38:55;1017.3;;;33.1;44.6
45113;BME280;30873;53.908;27.576;2022-08-06T09:43:55;1017.2;;;35;41
45113;BME280;30873;53.908;27.576;2022-08-06T09:48:58;1017.1;;;36.9;37.1
45113;BME280;30873;53.908;27.576;2022-08-06T09:53:55;1017.1;;;37.8;35.4
45113;BME280;30873;53.908;27.576;2022-08-06T09:58:58;1017.1;;;36.4;37.2
45113;BME280;30873;53.908;27.576;2022-08-06T10:03:55;1017.1;;;36;37.8
45113;BME280;30873;53.908;27.576;2022-08-06T10:09:11;1017.2;;;35.1;39.5
45113;BME280;30873;53.908;27.576;2022-08-06T10:13:54;1017.3;;;34.2;40.8
45113;BME280;30873;53.908;27.576;2022-08-06T10:18:54;1017.2;;;33.2;42.6
45113;BME280;30873;53.908;27.576;2022-08-06T10:24:01;1017.1;;;32.4;44.4
45113;BME280;30873;53.908;27.576;2022-08-06T10:28:54;1017.2;;;31.7;46.7
45113;BME280;30873;53.908;27.576;2022-08-06T10:34:00;1017.3;;;31.3;47.2
45113;BME280;30873;53.908;27.576;2022-08-06T10:38:54;1017.2;;;31;47.5
45113;BME280;30873;53.908;27.576;2022-08-06T10:43:54;1017.2;;;31;47
45113;BME280;30873;53.908;27.576;2022-08-06T10:48:54;1017.3;;;31.2;46.2
45113;BME280;30873;53.908;27.576;2022-08-06T10:53:54;1017.3;;;31.2;45.4
45113;BME280;30873;53.908;27.576;2022-08-06T10:58:54;1017.2;;;31.1;45.4
45113;BME280;30873;53.908;27.576;2022-08-06T11:04:01;1017;;;31.5;45.1
45113;BME280;30873;53.908;27.576;2022-08-06T11:09:01;1017;;;32.5;44
45113;BME280;30873;53.908;27.576;2022-08-06T11:14:03;1017;;;34.8;40.3
45113;BME280;30873;53.908;27.576;2022-08-06T11:19:03;1016.9;;;38.1;35.2
45113;BME280;30873;53.908;27.576;2022-08-06T11:23:59;1016.8;;;40.1;30.8
45113;BME280;30873;53.908;27.576;2022-08-06T11:28:56;1016.6;;;40.2;29.7
45113;BME280;30873;53.908;27.576;2022-08-06T11:33:58;1016.7;;;39.6;30.7
45113;BME280;30873;53.908;27.576;2022-08-06T11:38:56;1016.7;;;39.9;30.6
45113;BME280;30873;53.908;27.576;2022-08-06T11:44:04;1016.7;;;37.7;33.6
45113;BME280;30873;53.908;27.576;2022-08-06T11:49:19;1016.8;;;36.1;37.3
45113;BME280;30873;53.908;27.576;2022-08-06T11:54:27;1016.7;;;35.2;39.2
45113;BME280;30873;53.908;27.576;2022-08-06T12:00:01;1016.6;;;36.5;36.1
45113;BME280;30873;53.908;27.576;2022-08-06T12:03:54;1016.5;;;40.1;30.3
45113;BME280;30873;53.908;27.576;2022-08-06T12:09:10;1016.5;;;42;27.6
45113;BME280;30873;53.908;27.576;2022-08-06T12:13:55;1016.5;;;43.1;26.1
45113;BME280;30873;53.908;27.576;2022-08-06T12:18:54;1016.4;;;43.6;25.3
45113;BME280;30873;53.908;27.576;2022-08-06T12:23:54;1016.3;;;44.6;24.4
45113;BME280;30873;53.908;27.576;2022-08-06T12:28:54;1016.3;;;44.7;24.1
45113;BME280;30873;53.908;27.576;2022-08-06T12:33:54;1016.2;;;44.3;24.8
45113;BME280;30873;53.908;27.576;2022-08-06T12:38:55;1016.2;;;45.4;23.7
45113;BME280;30873;53.908;27.576;2022-08-06T12:43:54;1016.1;;;45.5;23.6
45113;BME280;30873;53.908;27.576;2022-08-06T12:48:54;1016.1;;;44.7;24.4
45113;BME280;30873;53.908;27.576;2022-08-06T12:53:59;1016.2;;;40.7;28.8
45113;BME280;30873;53.908;27.576;2022-08-06T12:58:54;1016.2;;;37.9;32.8
45113;BME280;30873;53.908;27.576;2022-08-06T13:03:55;1016.1;;;36.4;35.2
45113;BME280;30873;53.908;27.576;2022-08-06T13:08:54;1016.1;;;35.8;36.3
45113;BME280;30873;53.908;27.576;2022-08-06T13:13:54;1016;;;35.7;36.8
45113;BME280;30873;53.908;27.576;2022-08-06T13:19:03;1016;;;35.4;37.4
45113;BME280;30873;53.908;27.576;2022-08-06T13:23:54;1016;;;35;38.2
45113;BME280;30873;53.908;27.576;2022-08-06T13:29:11;1016.1;;;33.8;40.7
45113;BME280;30873;53.908;27.576;2022-08-06T13:33:58;1016.4;;;32.6;43.3
45113;BME280;30873;53.908;27.576;2022-08-06T13:38:54;1017.2;;;30.2;53.8
45113;BME280;30873;53.908;27.576;2022-08-06T13:43:54;1016.8;;;26.4;70.7
45113;BME280;30873;53.908;27.576;2022-08-06T13:48:55;1016;;;31.2;64.9
45113;BME280;30873;53.908;27.576;2022-08-06T13:53:55;1015.8;;;36.4;51.4
45113;BME280;30873;53.908;27.576;2022-08-06T13:58:54;1015.8;;;39.7;42.7
45113;BME280;30873;53.908;27.576;2022-08-06T14:03:54;1015.8;;;37.8;42
45113;BME280;30873;53.908;27.576;2022-08-06T14:08:54;1015.8;;;35.4;46.1
45113;BME280;30873;53.908;27.576;2022-08-06T14:13:54;1015.8;;;34.7;47.4
45113;BME280;30873;53.908;27.576;2022-08-06T14:18:54;1015.8;;;35.1;47.5
45113;BME280;30873;53.908;27.576;2022-08-06T14:23:54;1015.7;;;35.9;47
45113;BME280;30873;53.908;27.576;2022-08-06T14:28:54;1015.7;;;38.6;41.4
45113;BME280;30873;53.908;27.576;2022-08-06T14:33:54;1015.7;;;40.2;38.3
45113;BME280;30873;53.908;27.576;2022-08-06T14:38:55;1015.7;;;39.5;38
45113;BME280;30873;53.908;27.576;2022-08-06T14:43:54;1015.8;;;37.2;41.5
45113;BME280;30873;53.908;27.576;2022-08-06T14:48:54;1015.9;;;36.2;44.1
45113;BME280;30873;53.908;27.576;2022-08-06T14:53:54;1015.9;;;37.5;42.9
45113;BME280;30873;53.908;27.576;2022-08-06T14:58:54;1015.9;;;38;42.1
45113;BME280;30873;53.908;27.576;2022-08-06T15:03:54;1015.9;;;38.6;40.5
45113;BME280;30873;53.908;27.576;2022-08-06T15:08:54;1015.8;;;41.6;33.9
45113;BME280;30873;53.908;27.576;2022-08-06T15:13:54;1015.8;;;39.7;34.5
45113;BME280;30873;53.908;27.576;2022-08-06T15:18:54;1015.9;;;37.2;38
45113;BME280;30873;53.908;27.576;2022-08-06T15:23:55;1015.9;;;35.5;40.7
45113;BME280;30873;53.908;27.576;2022-08-06T15:28:54;1016.3;;;32.9;46.1
45113;BME280;30873;53.908;27.576;2022-08-06T15:33:54;1016.4;;;30.6;51
45113;BME280;30873;53.908;27.576;2022-08-06T15:38:54;1016.5;;;30.3;51.8
45113;BME280;30873;53.908;27.576;2022-08-06T15:43:54;1016.4;;;32.3;46.4
45113;BME280;30873;53.908;27.576;2022-08-06T15:48:54;1016.6;;;32.8;45.1
45113;BME280;30873;53.908;27.576;2022-08-06T15:53:54;1016.8;;;31.3;48.5
45113;BME280;30873;53.908;27.576;2022-08-06T15:58:54;1017;;;30.5;50.4
45113;BME280;30873;53.908;27.576;2022-08-06T16:03:54;1017.1;;;29.8;52.1
45113;BME280;30873;53.908;27.576;2022-08-06T16:08:54;1017.2;;;29;54.1
45113;BME280;30873;53.908;27.576;2022-08-06T16:13:54;1017.3;;;28.5;55.9
45113;BME280;30873;53.908;27.576;2022-08-06T16:18:54;1017.3;;;28.1;57.4
45113;BME280;30873;53.908;27.576;2022-08-06T16:23:54;1017.3;;;27.7;58.6
45113;BME280;30873;53.908;27.576;2022-08-06T16:28:54;1017.4;;;27.5;59.6
45113;BME280;30873;53.908;27.576;2022-08-06T16:33:54;1017.3;;;27.3;59.8
45113;BME280;30873;53.908;27.576;2022-08-06T16:38:54;1017.6;;;27.1;60.7
45113;BME280;30873;53.908;27.576;2022-08-06T16:43:54;1017.7;;;26.8;62.3
45113;BME280;30873;53.908;27.576;2022-08-06T16:48:54;1017.8;;;26.7;63.1
45113;BME280;30873;53.908;27.576;2022-08-06T16:53:54;1017.8;;;26.7;63.6
45113;BME280;30873;53.908;27.576;2022-08-06T16:58:54;1018;;;26.4;63.9
45113;BME280;30873;53.908;27.576;2022-08-06T17:03:55;1018.1;;;26.2;64.3
45113;BME280;30873;53.908;27.576;2022-08-06T17:08:55;1018.2;;;26;64.8
45113;BME280;30873;53.908;27.576;2022-08-06T17:13:54;1018.3;;;25.9;64.9
45113;BME280;30873;53.908;27.576;2022-08-06T17:18:54;1018.3;;;25.8;65.7
45113;BME280;30873;53.908;27.576;2022-08-06T17:23:54;1018.4;;;25.8;65.9
45113;BME280;30873;53.908;27.576;2022-08-06T17:28:54;1018.4;;;25.8;65.7
45113;BME280;30873;53.908;27.576;2022-08-06T17:33:54;1018.5;;;25.7;65.3
45113;BME280;30873;53.908;27.576;2022-08-06T17:38:54;1018.5;;;25.6;65.7
45113;BME280;30873;53.908;27.576;2022-08-06T17:43:54;1018.6;;;25.4;65.6
45113;BME280;30873;53.908;27.576;2022-08-06T17:48:55;1018.7;;;25.1;66.5
45113;BME280;30873;53.908;27.576;2022-08-06T17:53:54;1018.6;;;24.9;67.4
45113;BME280;30873;53.908;27.576;2022-08-06T17:58:54;1018.6;;;24.7;67.5
45113;BME280;30873;53.908;27.576;2022-08-06T18:03:54;1018.5;;;24.5;67.9
45113;BME280;30873;53.908;27.576;2022-08-06T18:08:54;1018.5;;;24.4;68.7
45113;BME280;30873;53.908;27.576;2022-08-06T18:13:55;1018.4;;;24.2;68.6
45113;BME280;30873;53.908;27.576;2022-08-06T18:18:54;1018.4;;;24.1;69.2
45113;BME280;30873;53.908;27.576;2022-08-06T18:23:54;1018.5;;;23.9;68.7
45113;BME280;30873;53.908;27.576;2022-08-06T18:28:54;1018.5;;;23.6;68.4
45113;BME280;30873;53.908;27.576;2022-08-06T18:33:55;1018.5;;;23.3;68.9
45113;BME280;30873;53.908;27.576;2022-08-06T18:38:54;1018.5;;;23.2;69.3
45113;BME280;30873;53.908;27.576;2022-08-06T18:43:54;1018.6;;;23;69.3
45113;BME280;30873;53.908;27.576;2022-08-06T18:48:54;1018.8;;;22.7;69.7
45113;BME280;30873;53.908;27.576;2022-08-06T18:53:54;1018.9;;;22.6;70.3
45113;BME280;30873;53.908;27.576;2022-08-06T18:58:54;1018.9;;;22.3;70.7
45113;BME280;30873;53.908;27.576;2022-08-06T19:03:54;1019;;;22.1;71.6
45113;BME280;30873;53.908;27.576;2022-08-06T19:08:54;1019.2;;;22;71.8
45113;BME280;30873;53.908;27.576;2022-08-06T19:13:54;1019.2;;;21.8;72.5
45113;BME280;30873;53.908;27.576;2022-08-06T19:18:55;1019.2;;;21.7;72.4
45113;BME280;30873;53.908;27.576;2022-08-06T19:23:54;1019.3;;;21.5;72.2
45113;BME280;30873;53.908;27.576;2022-08-06T19:28:54;1019.3;;;21.3;72.7
45113;BME280;30873;53.908;27.576;2022-08-06T19:33:54;1019.3;;;21.2;72.8
45113;BME280;30873;53.908;27.576;2022-08-06T19:38:54;1019.5;;;21.1;72.4
45113;BME280;30873;53.908;27.576;2022-08-06T19:43:54;1019.7;;;21;72.4
45113;BME280;30873;53.908;27.576;2022-08-06T19:48:54;1019.7;;;20.8;71.9
45113;BME280;30873;53.908;27.576;2022-08-06T19:53:54;1019.7;;;20.7;70.9
45113;BME280;30873;53.908;27.576;2022-08-06T19:58:54;1019.7;;;20.6;69.4
45113;BME280;30873;53.908;27.576;2022-08-06T20:03:54;1019.7;;;20.6;68.1
45113;BME280;30873;53.908;27.576;2022-08-06T20:08:54;1019.8;;;20.6;67
45113;BME280;30873;53.908;27.576;2022-08-06T20:13:54;1019.9;;;20.6;66.2
45113;BME280;30873;53.908;27.576;2022-08-06T20:18:54;1019.9;;;20.5;65.2
45113;BME280;30873;53.908;27.576;2022-08-06T20:23:54;1020;;;20.4;64.8
45113;BME280;30873;53.908;27.576;2022-08-06T20:28:54;1020;;;20.4;64.3
45113;BME280;30873;53.908;27.576;2022-08-06T20:33:54;1020.1;;;20.5;63.2
45113;BME280;30873;53.908;27.576;2022-08-06T20:38:55;1020.1;;;20.4;61.7
45113;BME280;30873;53.908;27.576;2022-08-06T20:43:54;1020.1;;;20.4;60.9
45113;BME280;30873;53.908;27.576;2022-08-06T20:48:54;1020.2;;;20.3;60.3
45113;BME280;30873;53.908;27.576;2022-08-06T20:53:54;1020.2;;;20.2;59.9
45113;BME280;30873;53.908;27.576;2022-08-06T20:58:54;1020.2;;;20.1;60
45113;BME280;30873;53.908;27.576;2022-08-06T21:03:55;1020.3;;;20;60.6
45113;BME280;30873;53.908;27.576;2022-08-06T21:08:54;1020.4;;;19.8;61.9
45113;BME280;30873;53.908;27.576;2022-08-06T21:13:54;1020.5;;;19.5;63.7
45113;BME280;30873;53.908;27.576;2022-08-06T21:18:54;1020.6;;;19.3;64.9
45113;BME280;30873;53.908;27.576;2022-08-06T21:23:54;1020.7;;;19.1;65.7
45113;BME280;30873;53.908;27.576;2022-08-06T21:28:54;1020.7;;;19;66.4
45113;BME280;30873;53.908;27.576;2022-08-06T21:33:54;1020.7;;;18.9;66.8
45113;BME280;30873;53.908;27.576;2022-08-06T21:38:55;1020.7;;;18.8;67.4
45113;BME280;30873;53.908;27.576;2022-08-06T21:43:55;1020.6;;;18.8;67.6
45113;BME280;30873;53.908;27.576;2022-08-06T21:48:55;1020.6;;;18.8;67.7
45113;BME280;30873;53.908;27.576;2022-08-06T21:53:54;1020.5;;;18.8;68
45113;BME280;30873;53.908;27.576;2022-08-06T21:58:54;1020.5;;;18.7;68.1
45113;BME280;30873;53.908;27.576;2022-08-06T22:03:55;1020.5;;;18.7;68.4
45113;BME280;30873;53.908;27.576;2022-08-06T22:08:55;1020.5;;;18.7;68.8
45113;BME280;30873;53.908;27.576;2022-08-06T22:13:54;1020.5;;;18.7;68.9
45113;BME280;30873;53.908;27.576;2022-08-06T22:18:54;1020.6;;;18.8;69
45113;BME280;30873;53.908;27.576;2022-08-06T22:23:54;1020.7;;;18.8;69
45113;BME280;30873;53.908;27.576;2022-08-06T22:28:54;1020.7;;;18.8;68.9
45113;BME280;30873;53.908;27.576;2022-08-06T22:33:54;1020.8;;;18.7;69
45113;BME280;30873;53.908;27.576;2022-08-06T22:38:54;1020.7;;;18.8;69
45113;BME280;30873;53.908;27.576;2022-08-06T22:43:54;1020.7;;;18.8;69.3
45113;BME280;30873;53.908;27.576;2022-08-06T22:48:54;1020.8;;;18.8;69.5
45113;BME280;30873;53.908;27.576;2022-08-06T22:53:54;1020.8;;;18.8;69.7
45113;BME280;30873;53.908;27.576;2022-08-06T22:58:54;1020.8;;;18.8;69.7
45113;BME280;30873;53.908;27.576;2022-08-06T23:03:54;1020.8;;;18.9;69.8
45113;BME280;30873;53.908;27.576;2022-08-06T23:08:55;1020.7;;;18.9;69.9
45113;BME280;30873;53.908;27.576;2022-08-06T23:13:54;1020.8;;;18.8;69.9
45113;BME280;30873;53.908;27.576;2022-08-06T23:18:54;1020.8;;;18.9;70.1
45113;BME280;30873;53.908;27.576;2022-08-06T23:23:55;1020.8;;;18.9;70
45113;BME280;30873;53.908;27.576;2022-08-06T23:28:54;1020.8;;;18.8;70.1
45113;BME280;30873;53.908;27.576;2022-08-06T23:33:54;1020.8;;;18.8;70.2
45113;BME280;30873;53.908;27.576;2022-08-06T23:38:55;1020.8;;;18.8;70.2
45113;BME280;30873;53.908;27.576;2022-08-06T23:43:54;1020.7;;;18.8;70.5
45113;BME280;30873;53.908;27.576;2022-08-06T23:48:55;1020.7;;;18.8;70.1
45113;BME280;30873;53.908;27.576;2022-08-06T23:53:54;1020.8;;;18.7;70.5
45113;BME280;30873;53.908;27.576;2022-08-06T23:58:54;1020.9;;;18.7;70.4
